sensor_id;sensor_type;location;lat;lon;timestamp;pressure;altitude;pressure_sealevel;temperature;humidity
84374;BME280;74563;52.206;14.630;2024-02-26T00:02:16;100238.03;;;9.15;58.81
84374;BME280;74563;52.206;14.630;2024-02-26T00:04:41;100246.88;;;8.66;58.04
84374;BME280;74563;52.206;14.630;2024-02-26T00:07:07;100238.03;;;8.49;58.83
84374;BME280;74563;52.206;14.630;2024-02-26T00:09:32;100203.34;;;8.42;58.53
84374;BME280;74563;52.206;14.630;2024-02-26T00:12:01;100223.41;;;9.11;56.98
84374;BME280;74563;52.206;14.630;2024-02-26T00:14:26;100233.88;;;8.46;59.85
84374;BME280;74563;52.206;14.630;2024-02-26T00:16:51;100206.00;;;7.31;63.36
84374;BME280;74563;52.206;14.630;2024-02-26T00:19:16;100196.59;;;8.14;60.81
84374;BME280;74563;52.206;14.630;2024-02-26T00:21:42;100217.44;;;8.35;60.10
84374;BME280;74563;52.206;14.630;2024-02-26T00:24:07;100233.63;;;8.74;58.69
84374;BME280;74563;52.206;14.630;2024-02-26T00:26:32;100198.34;;;8.31;59.84
84374;BME280;74563;52.206;14.630;2024-02-26T00:28:58;100228.41;;;9.14;57.19
84374;BME280;74563;52.206;14.630;2024-02-26T00:31:23;100182.59;;;9.20;55.59
84374;BME280;74563;52.206;14.630;2024-02-26T00:33:48;100235.00;;;9.91;54.17
84374;BME280;74563;52.206;14.630;2024-02-26T00:36:13;100219.44;;;8.15;58.94
84374;BME280;74563;52.206;14.630;2024-02-26T00:38:39;100239.00;;;8.14;60.26
84374;BME280;74563;52.206;14.630;2024-02-26T00:41:06;100198.78;;;8.69;58.55
84374;BME280;74563;52.206;14.630;2024-02-26T00:43:31;100237.09;;;7.98;59.81
84374;BME280;74563;52.206;14.630;2024-02-26T00:45:56;100222.69;;;8.85;58.41
84374;BME280;74563;52.206;14.630;2024-02-26T00:48:21;100202.34;;;9.10;55.92
84374;BME280;74563;52.206;14.630;2024-02-26T00:50:47;100228.59;;;8.54;58.35
84374;BME280;74563;52.206;14.630;2024-02-26T00:53:12;100227.38;;;8.41;58.90
84374;BME280;74563;52.206;14.630;2024-02-26T00:55:37;100224.56;;;8.42;59.41
84374;BME280;74563;52.206;14.630;2024-02-26T00:58:03;100175.38;;;8.48;57.58
84374;BME280;74563;52.206;14.630;2024-02-26T01:00:28;100217.75;;;9.06;56.31
84374;BME280;74563;52.206;14.630;2024-02-26T01:02:53;100190.94;;;8.51;57.47
84374;BME280;74563;52.206;14.630;2024-02-26T01:05:18;100212.47;;;8.98;56.52
84374;BME280;74563;52.206;14.630;2024-02-26T01:07:44;100163.16;;;8.79;55.80
84374;BME280;74563;52.206;14.630;2024-02-26T01:10:09;100180.59;;;8.98;54.57
84374;BME280;74563;52.206;14.630;2024-02-26T01:12:35;100205.25;;;8.66;55.26
84374;BME280;74563;52.206;14.630;2024-02-26T01:15:01;100119.84;;;8.04;55.27
84374;BME280;74563;52.206;14.630;2024-02-26T01:17:28;100206.34;;;8.47;56.23
84374;BME280;74563;52.206;14.630;2024-02-26T01:19:53;100186.19;;;8.21;56.36
84374;BME280;74563;52.206;14.630;2024-02-26T01:22:19;100180.88;;;8.21;55.86
84374;BME280;74563;52.206;14.630;2024-02-26T01:24:44;100198.50;;;8.30;55.63
84374;BME280;74563;52.206;14.630;2024-02-26T01:27:09;100184.22;;;7.63;57.67
84374;BME280;74563;52.206;14.630;2024-02-26T01:29:35;100186.53;;;6.97;61.36
84374;BME280;74563;52.206;14.630;2024-02-26T01:32:00;100183.38;;;7.88;58.19
84374;BME280;74563;52.206;14.630;2024-02-26T01:34:25;100201.84;;;7.29;60.43
84374;BME280;74563;52.206;14.630;2024-02-26T01:36:50;100158.66;;;7.28;60.34
84374;BME280;74563;52.206;14.630;2024-02-26T01:39:16;100198.03;;;7.75;59.47
84374;BME280;74563;52.206;14.630;2024-02-26T01:41:41;100162.25;;;8.46;56.35
84374;BME280;74563;52.206;14.630;2024-02-26T01:44:06;100195.59;;;8.49;56.59
84374;BME280;74563;52.206;14.630;2024-02-26T01:46:34;100163.78;;;7.47;59.06
84374;BME280;74563;52.206;14.630;2024-02-26T01:49:00;100187.75;;;8.31;57.50
84374;BME280;74563;52.206;14.630;2024-02-26T01:51:26;100195.19;;;8.02;58.66
84374;BME280;74563;52.206;14.630;2024-02-26T01:53:51;100167.94;;;8.18;57.21
84374;BME280;74563;52.206;14.630;2024-02-26T01:56:17;100192.28;;;8.13;57.78
84374;BME280;74563;52.206;14.630;2024-02-26T01:58:43;100159.38;;;7.38;59.57
84374;BME280;74563;52.206;14.630;2024-02-26T02:01:09;100177.88;;;7.30;60.15
84374;BME280;74563;52.206;14.630;2024-02-26T02:03:35;100176.13;;;7.65;60.10
84374;BME280;74563;52.206;14.630;2024-02-26T02:06:02;100140.66;;;7.32;59.89
84374;BME280;74563;52.206;14.630;2024-02-26T02:08:27;100188.66;;;7.54;60.26
84374;BME280;74563;52.206;14.630;2024-02-26T02:10:52;100144.59;;;7.53;58.47
84374;BME280;74563;52.206;14.630;2024-02-26T02:13:18;100202.13;;;7.69;58.60
84374;BME280;74563;52.206;14.630;2024-02-26T02:15:43;100156.94;;;7.71;57.56
84374;BME280;74563;52.206;14.630;2024-02-26T02:18:08;100186.13;;;8.13;56.52
84374;BME280;74563;52.206;14.630;2024-02-26T02:20:34;100192.44;;;7.78;57.64
84374;BME280;74563;52.206;14.630;2024-02-26T02:22:59;100165.16;;;7.93;56.63
84374;BME280;74563;52.206;14.630;2024-02-26T02:25:25;100145.19;;;7.65;57.13
84374;BME280;74563;52.206;14.630;2024-02-26T02:27:51;100174.94;;;7.33;57.84
84374;BME280;74563;52.206;14.630;2024-02-26T02:30:18;100201.13;;;7.44;58.62
84374;BME280;74563;52.206;14.630;2024-02-26T02:32:44;100202.28;;;7.68;57.86
84374;BME280;74563;52.206;14.630;2024-02-26T02:35:10;100130.03;;;7.06;58.53
84374;BME280;74563;52.206;14.630;2024-02-26T02:37:35;100198.56;;;7.78;57.30
84374;BME280;74563;52.206;14.630;2024-02-26T02:40:00;100166.09;;;8.18;55.79
84374;BME280;74563;52.206;14.630;2024-02-26T02:42:26;100197.50;;;7.45;58.28
84374;BME280;74563;52.206;14.630;2024-02-26T02:44:51;100187.56;;;7.04;59.54
84374;BME280;74563;52.206;14.630;2024-02-26T02:47:16;100190.00;;;7.41;58.56
84374;BME280;74563;52.206;14.630;2024-02-26T02:49:42;100216.72;;;7.73;57.89
84374;BME280;74563;52.206;14.630;2024-02-26T02:52:07;100160.25;;;7.65;56.78
84374;BME280;74563;52.206;14.630;2024-02-26T02:54:32;100206.63;;;7.25;58.76
84374;BME280;74563;52.206;14.630;2024-02-26T02:56:57;100170.19;;;7.45;57.78
84374;BME280;74563;52.206;14.630;2024-02-26T02:59:23;100180.66;;;7.80;57.06
84374;BME280;74563;52.206;14.630;2024-02-26T03:01:48;100184.09;;;7.73;58.05
84374;BME280;74563;52.206;14.630;2024-02-26T03:04:13;100184.31;;;7.53;56.90
84374;BME280;74563;52.206;14.630;2024-02-26T03:06:39;100174.59;;;5.56;61.70
84374;BME280;74563;52.206;14.630;2024-02-26T03:09:04;100199.97;;;5.77;63.20
84374;BME280;74563;52.206;14.630;2024-02-26T03:11:29;100156.28;;;6.82;58.54
84374;BME280;74563;52.206;14.630;2024-02-26T03:13:54;100172.75;;;7.11;57.45
84374;BME280;74563;52.206;14.630;2024-02-26T03:16:20;100160.09;;;7.40;56.08
84374;BME280;74563;52.206;14.630;2024-02-26T03:18:45;100138.81;;;5.81;62.41
84374;BME280;74563;52.206;14.630;2024-02-26T03:21:10;100147.38;;;6.65;59.97
84374;BME280;74563;52.206;14.630;2024-02-26T03:23:35;100180.59;;;7.21;58.81
84374;BME280;74563;52.206;14.630;2024-02-26T03:26:04;100198.59;;;7.61;56.50
84374;BME280;74563;52.206;14.630;2024-02-26T03:28:30;100162.50;;;6.73;59.11
84374;BME280;74563;52.206;14.630;2024-02-26T03:30:58;100197.47;;;6.67;61.01
84374;BME280;74563;52.206;14.630;2024-02-26T03:33:23;100165.13;;;6.73;60.86
84374;BME280;74563;52.206;14.630;2024-02-26T03:35:49;100139.81;;;6.52;61.08
84374;BME280;74563;52.206;14.630;2024-02-26T03:38:14;100168.41;;;7.02;59.34
84374;BME280;74563;52.206;14.630;2024-02-26T03:40:39;100124.31;;;6.93;58.41
84374;BME280;74563;52.206;14.630;2024-02-26T03:43:04;100167.56;;;6.84;60.04
84374;BME280;74563;52.206;14.630;2024-02-26T03:45:32;100172.91;;;6.92;60.29
84374;BME280;74563;52.206;14.630;2024-02-26T03:47:57;100208.06;;;6.84;61.20
84374;BME280;74563;52.206;14.630;2024-02-26T03:50:22;100206.75;;;7.24;59.16
84374;BME280;74563;52.206;14.630;2024-02-26T03:52:48;100162.63;;;7.06;58.38
84374;BME280;74563;52.206;14.630;2024-02-26T03:55:13;100156.19;;;7.27;56.42
84374;BME280;74563;52.206;14.630;2024-02-26T03:57:38;100177.56;;;7.59;55.85
84374;BME280;74563;52.206;14.630;2024-02-26T04:00:04;100187.03;;;7.62;55.34
84374;BME280;74563;52.206;14.630;2024-02-26T04:02:29;100183.91;;;7.40;55.95
84374;BME280;74563;52.206;14.630;2024-02-26T04:04:55;100151.66;;;7.19;56.13
84374;BME280;74563;52.206;14.630;2024-02-26T04:07:20;100156.78;;;7.21;56.77
84374;BME280;74563;52.206;14.630;2024-02-26T04:09:45;100153.75;;;7.33;55.14
84374;BME280;74563;52.206;14.630;2024-02-26T04:12:10;100197.88;;;7.76;54.51
84374;BME280;74563;52.206;14.630;2024-02-26T04:14:36;100206.09;;;7.22;56.63
84374;BME280;74563;52.206;14.630;2024-02-26T04:17:02;100201.63;;;7.22;56.35
84374;BME280;74563;52.206;14.630;2024-02-26T04:19:27;100192.84;;;7.39;55.80
84374;BME280;74563;52.206;14.630;2024-02-26T04:21:52;100162.09;;;6.68;56.78
84374;BME280;74563;52.206;14.630;2024-02-26T04:24:18;100123.78;;;6.72;56.35
84374;BME280;74563;52.206;14.630;2024-02-26T04:26:43;100205.03;;;6.97;57.51
84374;BME280;74563;52.206;14.630;2024-02-26T04:29:08;100212.69;;;6.37;60.77
84374;BME280;74563;52.206;14.630;2024-02-26T04:31:33;100158.28;;;6.17;60.86
84374;BME280;74563;52.206;14.630;2024-02-26T04:33:59;100216.78;;;6.22;62.44
84374;BME280;74563;52.206;14.630;2024-02-26T04:36:24;100196.72;;;6.29;61.74
84374;BME280;74563;52.206;14.630;2024-02-26T04:38:50;100169.31;;;6.03;62.44
84374;BME280;74563;52.206;14.630;2024-02-26T04:41:16;100195.09;;;6.19;62.03
84374;BME280;74563;52.206;14.630;2024-02-26T04:43:41;100213.09;;;6.33;61.85
84374;BME280;74563;52.206;14.630;2024-02-26T04:46:10;100234.72;;;6.28;62.77
84374;BME280;74563;52.206;14.630;2024-02-26T04:48:36;100233.28;;;6.61;61.50
84374;BME280;74563;52.206;14.630;2024-02-26T04:51:02;100240.34;;;6.88;59.79
84374;BME280;74563;52.206;14.630;2024-02-26T04:53:27;100210.22;;;6.53;60.21
84374;BME280;74563;52.206;14.630;2024-02-26T04:55:52;100204.44;;;6.40;60.79
84374;BME280;74563;52.206;14.630;2024-02-26T04:58:18;100188.59;;;6.40;60.61
84374;BME280;74563;52.206;14.630;2024-02-26T05:00:43;100254.56;;;6.87;60.28
84374;BME280;74563;52.206;14.630;2024-02-26T05:03:08;100254.19;;;7.17;58.77
84374;BME280;74563;52.206;14.630;2024-02-26T05:05:38;100225.69;;;7.11;57.55
84374;BME280;74563;52.206;14.630;2024-02-26T05:08:03;100237.97;;;6.40;61.28
84374;BME280;74563;52.206;14.630;2024-02-26T05:10:28;100250.59;;;5.72;64.03
84374;BME280;74563;52.206;14.630;2024-02-26T05:12:54;100200.50;;;6.72;59.82
84374;BME280;74563;52.206;14.630;2024-02-26T05:15:19;100253.50;;;6.97;58.98
84374;BME280;74563;52.206;14.630;2024-02-26T05:17:44;100235.91;;;6.88;58.05
84374;BME280;74563;52.206;14.630;2024-02-26T05:20:10;100233.56;;;6.58;58.23
84374;BME280;74563;52.206;14.630;2024-02-26T05:22:36;100251.41;;;6.19;59.11
84374;BME280;74563;52.206;14.630;2024-02-26T05:25:02;100251.38;;;5.92;60.00
84374;BME280;74563;52.206;14.630;2024-02-26T05:27:28;100256.00;;;5.61;60.53
84374;BME280;74563;52.206;14.630;2024-02-26T05:29:53;100218.69;;;4.79;62.07
84374;BME280;74563;52.206;14.630;2024-02-26T05:32:19;100268.38;;;5.61;61.10
84374;BME280;74563;52.206;14.630;2024-02-26T05:34:44;100263.63;;;5.93;59.37
84374;BME280;74563;52.206;14.630;2024-02-26T05:37:10;100221.66;;;5.90;58.19
84374;BME280;74563;52.206;14.630;2024-02-26T05:39:35;100263.25;;;6.25;57.94
84374;BME280;74563;52.206;14.630;2024-02-26T05:42:00;100268.38;;;5.61;60.34
84374;BME280;74563;52.206;14.630;2024-02-26T05:44:26;100267.84;;;5.47;60.90
84374;BME280;74563;52.206;14.630;2024-02-26T05:46:51;100270.75;;;5.44;60.77
84374;BME280;74563;52.206;14.630;2024-02-26T05:49:17;100261.63;;;6.04;59.31
84374;BME280;74563;52.206;14.630;2024-02-26T05:51:42;100252.56;;;6.17;58.10
84374;BME280;74563;52.206;14.630;2024-02-26T05:54:07;100277.19;;;6.44;57.86
84374;BME280;74563;52.206;14.630;2024-02-26T05:56:33;100260.34;;;6.09;58.62
84374;BME280;74563;52.206;14.630;2024-02-26T05:58:58;100283.38;;;6.35;57.93
84374;BME280;74563;52.206;14.630;2024-02-26T06:01:23;100264.59;;;6.83;55.68
84374;BME280;74563;52.206;14.630;2024-02-26T06:03:51;100253.00;;;6.67;56.67
84374;BME280;74563;52.206;14.630;2024-02-26T06:06:16;100239.09;;;6.37;56.92
84374;BME280;74563;52.206;14.630;2024-02-26T06:08:43;100283.81;;;7.38;55.05
84374;BME280;74563;52.206;14.630;2024-02-26T06:11:09;100289.03;;;6.68;55.60
84374;BME280;74563;52.206;14.630;2024-02-26T06:13:35;100287.50;;;6.92;55.23
84374;BME280;74563;52.206;14.630;2024-02-26T06:16:01;100290.66;;;6.78;56.77
84374;BME280;74563;52.206;14.630;2024-02-26T06:18:26;100233.03;;;6.54;56.65
84374;BME280;74563;52.206;14.630;2024-02-26T06:20:51;100260.31;;;5.52;61.30
84374;BME280;74563;52.206;14.630;2024-02-26T06:23:16;100231.91;;;6.57;56.34
84374;BME280;74563;52.206;14.630;2024-02-26T06:25:42;100277.44;;;6.78;56.42
84374;BME280;74563;52.206;14.630;2024-02-26T06:28:10;100215.56;;;5.61;58.92
84374;BME280;74563;52.206;14.630;2024-02-26T06:30:35;100289.50;;;5.13;64.08
84374;BME280;74563;52.206;14.630;2024-02-26T06:33:01;100303.31;;;3.85;69.04
84374;BME280;74563;52.206;14.630;2024-02-26T06:35:26;100309.47;;;4.46;68.15
84374;BME280;74563;52.206;14.630;2024-02-26T06:37:52;100307.69;;;5.16;66.06
84374;BME280;74563;52.206;14.630;2024-02-26T06:40:18;100230.63;;;5.31;63.28
84374;BME280;74563;52.206;14.630;2024-02-26T06:42:44;100255.91;;;5.05;65.11
84374;BME280;74563;52.206;14.630;2024-02-26T06:45:09;100303.13;;;5.66;64.20
84374;BME280;74563;52.206;14.630;2024-02-26T06:47:35;100310.78;;;5.59;64.31
84374;BME280;74563;52.206;14.630;2024-02-26T06:50:01;100266.88;;;5.48;64.44
84374;BME280;74563;52.206;14.630;2024-02-26T06:52:26;100300.63;;;5.16;66.19
84374;BME280;74563;52.206;14.630;2024-02-26T06:54:52;100322.97;;;5.31;66.21
84374;BME280;74563;52.206;14.630;2024-02-26T06:57:20;100266.25;;;5.74;64.04
84374;BME280;74563;52.206;14.630;2024-02-26T06:59:46;100304.47;;;6.45;61.72
84374;BME280;74563;52.206;14.630;2024-02-26T07:02:12;100313.94;;;7.02;60.67
84374;BME280;74563;52.206;14.630;2024-02-26T07:04:38;100314.28;;;6.62;61.95
84374;BME280;74563;52.206;14.630;2024-02-26T07:07:03;100300.38;;;6.23;63.32
84374;BME280;74563;52.206;14.630;2024-02-26T07:09:28;100312.66;;;6.05;64.39
84374;BME280;74563;52.206;14.630;2024-02-26T07:11:54;100286.72;;;5.72;65.74
84374;BME280;74563;52.206;14.630;2024-02-26T07:14:20;100296.66;;;6.07;65.91
84374;BME280;74563;52.206;14.630;2024-02-26T07:16:45;100333.78;;;6.51;64.66
84374;BME280;74563;52.206;14.630;2024-02-26T07:19:11;100302.34;;;7.21;62.51
84374;BME280;74563;52.206;14.630;2024-02-26T07:21:36;100330.47;;;6.49;66.53
84374;BME280;74563;52.206;14.630;2024-02-26T07:24:02;100330.00;;;6.91;64.91
84374;BME280;74563;52.206;14.630;2024-02-26T07:26:27;100323.50;;;7.03;64.90
84374;BME280;74563;52.206;14.630;2024-02-26T07:28:54;100308.38;;;6.95;65.46
84374;BME280;74563;52.206;14.630;2024-02-26T07:31:20;100327.63;;;6.61;68.24
84374;BME280;74563;52.206;14.630;2024-02-26T07:33:45;100332.28;;;6.76;67.88
84374;BME280;74563;52.206;14.630;2024-02-26T07:36:11;100327.41;;;6.99;68.07
84374;BME280;74563;52.206;14.630;2024-02-26T07:38:37;100302.31;;;6.58;68.84
84374;BME280;74563;52.206;14.630;2024-02-26T07:41:02;100286.06;;;6.16;69.99
84374;BME280;74563;52.206;14.630;2024-02-26T07:43:28;100332.72;;;6.99;68.62
84374;BME280;74563;52.206;14.630;2024-02-26T07:45:53;100338.47;;;6.94;68.80
84374;BME280;74563;52.206;14.630;2024-02-26T07:48:18;100277.88;;;7.36;66.22
84374;BME280;74563;52.206;14.630;2024-02-26T07:50:43;100290.03;;;7.29;67.14
84374;BME280;74563;52.206;14.630;2024-02-26T07:53:09;100329.06;;;7.27;68.99
84374;BME280;74563;52.206;14.630;2024-02-26T07:55:34;100305.47;;;7.95;65.61
84374;BME280;74563;52.206;14.630;2024-02-26T07:57:59;100336.00;;;8.50;65.36
84374;BME280;74563;52.206;14.630;2024-02-26T08:00:25;100308.13;;;7.95;66.94
84374;BME280;74563;52.206;14.630;2024-02-26T08:02:50;100240.13;;;8.37;64.59
84374;BME280;74563;52.206;14.630;2024-02-26T08:05:15;100317.41;;;7.38;70.48
84374;BME280;74563;52.206;14.630;2024-02-26T08:07:41;100324.44;;;8.08;68.65
84374;BME280;74563;52.206;14.630;2024-02-26T08:10:06;100316.44;;;7.39;71.25
84374;BME280;74563;52.206;14.630;2024-02-26T08:12:32;100294.59;;;7.54;69.88
84374;BME280;74563;52.206;14.630;2024-02-26T08:14:57;100325.59;;;8.57;67.33
84374;BME280;74563;52.206;14.630;2024-02-26T08:17:23;100322.94;;;8.57;67.51
84374;BME280;74563;52.206;14.630;2024-02-26T08:19:48;100318.69;;;7.69;71.94
84374;BME280;74563;52.206;14.630;2024-02-26T08:22:13;100275.03;;;7.99;69.29
84374;BME280;74563;52.206;14.630;2024-02-26T08:24:42;100278.09;;;8.38;69.13
84374;BME280;74563;52.206;14.630;2024-02-26T08:27:07;100324.28;;;9.03;68.03
84374;BME280;74563;52.206;14.630;2024-02-26T08:29:32;100298.94;;;10.14;63.00
84374;BME280;74563;52.206;14.630;2024-02-26T08:31:57;100293.22;;;8.87;66.21
84374;BME280;74563;52.206;14.630;2024-02-26T08:34:23;100306.44;;;9.94;64.96
84374;BME280;74563;52.206;14.630;2024-02-26T08:36:48;100320.09;;;11.09;60.18
84374;BME280;74563;52.206;14.630;2024-02-26T08:39:14;100296.25;;;10.77;62.17
84374;BME280;74563;52.206;14.630;2024-02-26T08:41:39;100320.47;;;10.98;61.57
84374;BME280;74563;52.206;14.630;2024-02-26T08:44:05;100311.34;;;10.53;63.70
84374;BME280;74563;52.206;14.630;2024-02-26T08:46:30;100298.16;;;11.52;59.53
84374;BME280;74563;52.206;14.630;2024-02-26T08:48:56;100267.41;;;11.42;60.73
84374;BME280;74563;52.206;14.630;2024-02-26T08:51:21;100298.69;;;11.71;59.71
84374;BME280;74563;52.206;14.630;2024-02-26T08:53:46;100254.81;;;12.40;56.80
84374;BME280;74563;52.206;14.630;2024-02-26T08:56:12;100307.09;;;12.64;57.63
84374;BME280;74563;52.206;14.630;2024-02-26T08:58:44;100315.66;;;12.15;59.09
84374;BME280;74563;52.206;14.630;2024-02-26T09:01:11;100272.38;;;14.33;51.91
84374;BME280;74563;52.206;14.630;2024-02-26T09:03:36;100290.75;;;14.71;51.18
84374;BME280;74563;52.206;14.630;2024-02-26T09:06:01;100253.50;;;14.89;49.61
84374;BME280;74563;52.206;14.630;2024-02-26T09:08:27;100312.00;;;13.46;54.95
84374;BME280;74563;52.206;14.630;2024-02-26T09:10:52;100316.94;;;12.48;57.23
84374;BME280;74563;52.206;14.630;2024-02-26T09:13:18;100304.56;;;14.40;52.75
84374;BME280;74563;52.206;14.630;2024-02-26T09:15:44;100307.63;;;13.60;55.06
84374;BME280;74563;52.206;14.630;2024-02-26T09:18:09;100298.06;;;14.21;53.08
84374;BME280;74563;52.206;14.630;2024-02-26T09:20:35;100315.09;;;11.82;60.14
84374;BME280;74563;52.206;14.630;2024-02-26T09:23:00;100307.03;;;11.68;61.11
84374;BME280;74563;52.206;14.630;2024-02-26T09:25:25;100272.81;;;11.56;61.78
84374;BME280;74563;52.206;14.630;2024-02-26T09:27:50;100281.94;;;12.58;58.92
84374;BME280;74563;52.206;14.630;2024-02-26T09:30:16;100308.00;;;15.96;50.28
84374;BME280;74563;52.206;14.630;2024-02-26T09:32:41;100310.34;;;13.88;54.66
84374;BME280;74563;52.206;14.630;2024-02-26T09:35:10;100316.19;;;13.13;57.54
84374;BME280;74563;52.206;14.630;2024-02-26T09:37:35;100315.63;;;13.39;57.15
84374;BME280;74563;52.206;14.630;2024-02-26T09:40:02;100312.22;;;14.77;54.19
84374;BME280;74563;52.206;14.630;2024-02-26T09:42:30;100309.00;;;14.95;53.49
84374;BME280;74563;52.206;14.630;2024-02-26T09:44:59;100270.44;;;14.48;53.43
84374;BME280;74563;52.206;14.630;2024-02-26T09:47:28;100262.53;;;16.21;48.97
84374;BME280;74563;52.206;14.630;2024-02-26T09:49:56;100280.97;;;14.97;52.34
84374;BME280;74563;52.206;14.630;2024-02-26T09:52:23;100303.84;;;15.54;52.09
84374;BME280;74563;52.206;14.630;2024-02-26T09:54:49;100313.47;;;15.35;53.14
84374;BME280;74563;52.206;14.630;2024-02-26T09:57:15;100276.69;;;14.00;55.11
84374;BME280;74563;52.206;14.630;2024-02-26T09:59:42;100315.53;;;13.68;57.80
84374;BME280;74563;52.206;14.630;2024-02-26T10:02:11;100291.03;;;14.89;54.34
84374;BME280;74563;52.206;14.630;2024-02-26T10:04:38;100275.00;;;16.79;49.26
84374;BME280;74563;52.206;14.630;2024-02-26T10:07:06;100308.66;;;15.18;52.35
84374;BME280;74563;52.206;14.630;2024-02-26T10:09:35;100271.44;;;15.82;50.94
84374;BME280;74563;52.206;14.630;2024-02-26T10:12:00;100277.81;;;16.20;50.83
84374;BME280;74563;52.206;14.630;2024-02-26T10:14:25;100303.41;;;16.42;50.05
84374;BME280;74563;52.206;14.630;2024-02-26T10:16:51;100304.00;;;16.64;48.88
84374;BME280;74563;52.206;14.630;2024-02-26T10:19:26;100300.69;;;17.13;48.33
84374;BME280;74563;52.206;14.630;2024-02-26T10:21:56;100305.50;;;16.08;50.31
84374;BME280;74563;52.206;14.630;2024-02-26T10:24:22;100295.78;;;16.20;51.50
84374;BME280;74563;52.206;14.630;2024-02-26T10:26:47;100294.63;;;16.86;48.87
84374;BME280;74563;52.206;14.630;2024-02-26T10:29:12;100279.94;;;17.65;47.04
84374;BME280;74563;52.206;14.630;2024-02-26T10:31:37;100297.59;;;16.65;48.87
84374;BME280;74563;52.206;14.630;2024-02-26T10:34:07;100293.53;;;16.10;50.31
84374;BME280;74563;52.206;14.630;2024-02-26T10:36:33;100291.31;;;16.91;48.32
84374;BME280;74563;52.206;14.630;2024-02-26T10:39:01;100251.44;;;17.19;47.16
84374;BME280;74563;52.206;14.630;2024-02-26T10:41:27;100258.91;;;16.73;48.84
84374;BME280;74563;52.206;14.630;2024-02-26T10:43:52;100296.88;;;16.89;48.70
84374;BME280;74563;52.206;14.630;2024-02-26T10:46:17;100272.78;;;17.14;48.01
84374;BME280;74563;52.206;14.630;2024-02-26T10:48:49;100289.81;;;17.39;47.56
84374;BME280;74563;52.206;14.630;2024-02-26T10:51:15;100289.81;;;17.39;47.52
84374;BME280;74563;52.206;14.630;2024-02-26T10:53:42;100284.13;;;17.85;47.00
84374;BME280;74563;52.206;14.630;2024-02-26T10:56:10;100261.53;;;17.24;46.59
84374;BME280;74563;52.206;14.630;2024-02-26T10:58:37;100248.22;;;17.67;46.32
84374;BME280;74563;52.206;14.630;2024-02-26T11:01:02;100287.03;;;16.64;51.14
84374;BME280;74563;52.206;14.630;2024-02-26T11:03:29;100290.66;;;15.85;54.46
84374;BME280;74563;52.206;14.630;2024-02-26T11:05:58;100277.63;;;16.28;52.22
84374;BME280;74563;52.206;14.630;2024-02-26T11:08:25;100292.50;;;16.24;53.01
84374;BME280;74563;52.206;14.630;2024-02-26T11:10:53;100257.09;;;14.62;57.14
84374;BME280;74563;52.206;14.630;2024-02-26T11:13:19;100278.44;;;15.57;55.57
84374;BME280;74563;52.206;14.630;2024-02-26T11:15:46;100287.13;;;14.85;57.46
84374;BME280;74563;52.206;14.630;2024-02-26T11:18:15;100279.09;;;15.91;53.91
84374;BME280;74563;52.206;14.630;2024-02-26T11:20:42;100280.97;;;15.04;56.88
84374;BME280;74563;52.206;14.630;2024-02-26T11:23:08;100283.03;;;16.86;51.29
84374;BME280;74563;52.206;14.630;2024-02-26T11:25:34;100275.56;;;15.91;52.72
84374;BME280;74563;52.206;14.630;2024-02-26T11:28:03;100230.72;;;16.11;51.69
84374;BME280;74563;52.206;14.630;2024-02-26T11:30:31;100266.66;;;16.17;51.49
84374;BME280;74563;52.206;14.630;2024-02-26T11:32:57;100285.59;;;15.23;55.34
84374;BME280;74563;52.206;14.630;2024-02-26T11:35:23;100279.88;;;16.31;52.76
84374;BME280;74563;52.206;14.630;2024-02-26T11:37:56;100278.59;;;16.40;52.61
84374;BME280;74563;52.206;14.630;2024-02-26T11:40:25;100258.38;;;16.95;49.75
84374;BME280;74563;52.206;14.630;2024-02-26T11:42:53;100262.16;;;15.65;53.28
84374;BME280;74563;52.206;14.630;2024-02-26T11:48:02;100272.00;;;16.36;51.83
84374;BME280;74563;52.206;14.630;2024-02-26T11:50:33;100271.84;;;15.52;53.80
84374;BME280;74563;52.206;14.630;2024-02-26T11:55:46;100279.22;;;16.56;51.97
84374;BME280;74563;52.206;14.630;2024-02-26T11:58:11;100282.63;;;17.65;48.25
84374;BME280;74563;52.206;14.630;2024-02-26T12:00:40;100241.34;;;16.64;50.30
84374;BME280;74563;52.206;14.630;2024-02-26T12:03:05;100274.09;;;16.28;51.46
84374;BME280;74563;52.206;14.630;2024-02-26T12:05:33;100240.69;;;15.65;51.56
84374;BME280;74563;52.206;14.630;2024-02-26T12:08:07;100257.97;;;16.34;51.14
84374;BME280;74563;52.206;14.630;2024-02-26T12:10:35;100266.38;;;17.78;46.88
84374;BME280;74563;52.206;14.630;2024-02-26T12:13:07;100276.75;;;17.05;50.17
84374;BME280;74563;52.206;14.630;2024-02-26T12:15:37;100275.03;;;17.17;49.89
84374;BME280;74563;52.206;14.630;2024-02-26T12:18:04;100270.06;;;17.14;50.58
84374;BME280;74563;52.206;14.630;2024-02-26T12:20:30;100286.00;;;16.65;51.74
84374;BME280;74563;52.206;14.630;2024-02-26T12:22:56;100274.88;;;17.12;49.76
84374;BME280;74563;52.206;14.630;2024-02-26T12:25:25;100276.53;;;16.49;51.11
84374;BME280;74563;52.206;14.630;2024-02-26T12:27:51;100258.91;;;17.11;48.83
84374;BME280;74563;52.206;14.630;2024-02-26T12:30:16;100272.00;;;18.19;47.23
84374;BME280;74563;52.206;14.630;2024-02-26T12:32:42;100282.03;;;17.25;49.36
84374;BME280;74563;52.206;14.630;2024-02-26T12:35:08;100256.63;;;18.44;45.68
84374;BME280;74563;52.206;14.630;2024-02-26T12:37:33;100278.66;;;18.78;45.33
84374;BME280;74563;52.206;14.630;2024-02-26T12:40:01;100293.00;;;17.54;49.83
84374;BME280;74563;52.206;14.630;2024-02-26T12:42:27;100294.34;;;16.24;52.14
84374;BME280;74563;52.206;14.630;2024-02-26T12:44:52;100251.75;;;16.98;50.52
84374;BME280;74563;52.206;14.630;2024-02-26T12:47:17;100265.69;;;18.07;46.70